SBFLSBCT

Guest
Details From SBFL - Hercillo Luz
To SBCT - Afonso Pena
Flight Number -
Tags generated
Created
Modified
Stats Distance 133 nm / 246 km
Max Altitude 8,600 ft / 2,621 m
Waypoints 3
Social Downloads 3
Likes 0
Share VATSIM

Download

Looking for another format? Having issues loading an existing format? Contact us
Advertisement - Login to hide

Notes

Basic altitude profile: - Ascent Rate: 2500ft/min - Ascent Speed: 250kts - Cruise Altitude: 35000ft - Cruise Speed: 420kts - Descent Rate: 1500ft/min - Descent Speed: 250kts

Route

SBFL ALVOX SBCT

ID Type Via Altitude Latitude Longitude Leg Dist Tot Dist Heading (true) Name
O SBFL APT - 0 ft / 0 m -27.67049˚ -48.54718˚ - 0 nm - Hercillo Luz
ALVOX FIX - 8,600 ft / 2,621 m -26.17500˚ -48.97250˚ 92 nm 92 nm 346° / 346° -
O SBCT APT - 0 ft / 0 m -25.52888˚ -49.17306˚ 40 nm 132 nm 344° / 344° Afonso Pena

Altitude Profile

Advertisement - Login to hide

SBFL

Details ICAO SBFL (FLN)
Name Hercillo Luz
Region Brazil
Timezone America/Sao_Paulo (UTC-2.0)
Stats Elevation 19 ft / 6 m (AMSL)
Location -27.670487° -48.547180°
Runways 2
Magnetic Variation 19.319° W

METAR

SBFL 121200Z 18006KT 9999 FEW040 23/11 Q1018

Decode

TAF

TAF TAF SBFL 120900Z 1212/1312 03008KT 9999 SCT030 TN20/1300Z TX23/1312Z PROB30 1212/1215 15006KT FEW020 PROB30 1215/1220 08008KT BECMG 1308/1312 36012KT BKN025 RMK PDN

Decode

Departure Runways

ID Width Length Bearing (true) Bearing (mag) Surface Threshold Offset Overrun Length
03 148 ft / 45 m 4,939 ft / 1,505 m 11.55° 30.87° Concrete 0 ft / 0 m 0 ft / 0 m
14 148 ft / 45 m 7,543 ft / 2,299 m 121.30° 140.62° Asphalt 720 ft / 219 m 0 ft / 0 m
21 148 ft / 45 m 4,939 ft / 1,505 m 191.55° 210.87° Concrete 0 ft / 0 m 0 ft / 0 m
32 148 ft / 45 m 7,543 ft / 2,299 m 301.29° 320.61° Asphalt 0 ft / 0 m 200 ft / 61 m

SBCT

Details ICAO SBCT (CWB)
Name Afonso Pena
Region Brazil
Timezone America/Sao_Paulo (UTC-2.0)
Stats Elevation 2,988 ft / 911 m (AMSL)
Location -25.528885° -49.173062°
Runways 2
Magnetic Variation 19.612° W

METAR

SBCT 121200Z 14013KT 9000 -DZ OVC005 14/13 Q1021

Decode

TAF

TAF SBCT 120900Z 1212/1312 10010KT 9999 SCT030 SCT040 TX23/1217Z TN12/1307Z PROB30 1214/1220 10012KT 9999 SCT030 SCT040 BECMG 1306/1310 04005KT SCT010 RMK PDN

Decode

Destination Runways

ID Width Length Bearing (true) Bearing (mag) Surface Threshold Offset Overrun Length
11 148 ft / 45 m 5,909 ft / 1,801 m 91.79° 111.40° Asphalt 0 ft / 0 m 0 ft / 0 m
15 148 ft / 45 m 7,290 ft / 2,222 m 134.76° 154.37° Asphalt 0 ft / 0 m 190 ft / 58 m
29 148 ft / 45 m 5,909 ft / 1,801 m 271.78° 291.39° Asphalt 0 ft / 0 m 0 ft / 0 m
33 148 ft / 45 m 7,290 ft / 2,222 m 314.75° 334.36° Asphalt 0 ft / 0 m 185 ft / 56 m

Approach Navaids

Runway Type Ident Frequency Range Bearing (true) Bearing (mag) Slope Elevation
15 Localiser ICT 109.30 MHz 18 nm / 33 km 134.93° 154.54° - 2,990 ft / 911 m (AMSL)
15 Glidescope ICT 109.30 MHz 10 nm / 19 km 134.75° 154.37° 3.04° 2,990 ft / 911 m (AMSL)

Popular Alternatives